Terminal Aerodrome Forecast
Issued by NWS Sterling, VA

Current Version | Previous Version | Graphics & Text | Print | Product List | Glossary On
Versions: 1 2 3 4 5 6 7 8 9 10 11 12 13 14 15 16 17 18
000
FTUS41 KLWX 261146
TAFMRB
TAF
KMRB 261146Z 2612/2712 20004KT P6SM SCT025 BKN050 WS020/22040KT
     FM261300 19008KT P6SM BKN025
     FM261500 20014G20KT P6SM BKN050
     FM262300 27012KT 5SM SHRA BKN040
     FM270100 32013G22KT P6SM -SHRA OVC025
     FM270900 32008KT P6SM SCT025 OVC050=

USA.gov is the U.S. government's official web portal to all federal, state and local government web resources and services.